Time;durP1;ratioP1;P1;durP2;ratioP2;P2;SDS_P1;SDS_P2;PMS_P1;PMS_P2;Temp;Humidity;BMP_temperature;BMP_pressure;BME280_temperature;BME280_humidity;BME280_pressure;Samples;Min_cycle;Max_cycle;Signal;HPM_P1;HPM_P2
2022/12/15 00:39:20;;;;;;;53.20;22.65;;;6.20;59.50;;;;;;7395316;19;20018;-86
2022/12/15 00:41:52;;;;;;;62.92;21.92;;;6.10;59.40;;;;;;7378870;19;20089;-85
2022/12/15 00:44:22;;;;;;;;;;;6.10;59.50;;;;;;7397565;19;20035;-86
2022/12/15 00:46:54;;;;;;;57.30;22.38;;;6.20;59.40;;;;;;7376886;19;19994;-84
2022/12/15 01:21:51;;;;;;;54.88;21.70;;;6.20;61.00;;;;;;7383902;19;20035;-88
2022/12/15 01:24:19;;;;;;;52.08;21.75;;;6.20;61.40;;;;;;7380401;19;20373;-86
2022/12/15 01:26:48;;;;;;;53.30;20.73;;;6.20;61.60;;;;;;7379182;19;20514;-88
2022/12/15 01:29:19;;;;;;;47.97;20.85;;;6.20;62.00;;;;;;7395849;19;20105;-86
2022/12/15 01:31:48;;;;;;;;;;;6.20;62.40;;;;;;7376504;19;20028;-87
2022/12/15 01:34:18;;;;;;;54.10;20.42;;;6.20;62.60;;;;;;7376783;19;19993;-87
2022/12/15 01:39:21;;;;;;;56.75;23.13;;;6.00;61.90;;;;;;7362047;19;20019;-85
2022/12/15 01:41:47;;;;;;;56.53;21.75;;;5.90;61.90;;;;;;7380885;19;20032;-85
2022/12/15 01:44:26;;;;;;;58.28;22.88;;;5.90;62.10;;;;;;7403698;19;20014;-85
2022/12/15 01:46:57;;;;;;;61.97;23.40;;;5.80;62.60;;;;;;7381028;19;20018;-85
2022/12/15 01:49:30;;;;;;;59.65;21.65;;;5.80;63.00;;;;;;7378885;19;20336;-87
2022/12/15 01:52:02;;;;;;;55.45;22.30;;;5.70;63.00;;;;;;7379100;19;20468;-84
2022/12/15 01:54:36;;;;;;;55.00;21.60;;;5.70;63.10;;;;;;7375648;19;20031;-84
2022/12/15 01:57:07;;;;;;;58.25;23.17;;;5.70;63.30;;;;;;7374464;19;20086;-83
2022/12/15 01:59:45;;;;;;;57.55;21.52;;;5.60;62.90;;;;;;7375877;19;20036;-83
2022/12/15 02:02:16;;;;;;;53.45;21.20;;;5.50;62.70;;;;;;7395738;19;20150;-86
2022/12/15 02:04:46;;;;;;;49.05;20.23;;;5.60;62.80;;;;;;7373379;19;20018;-86
2022/12/15 02:07:15;;;;;;;58.75;21.77;;;5.50;63.20;;;;;;7375979;19;20117;-86
2022/12/15 02:09:47;;;;;;;53.75;21.88;;;5.50;63.70;;;;;;7377521;19;20019;-86
2022/12/15 02:12:26;;;;;;;62.67;23.80;;;5.40;63.60;;;;;;7377667;19;20134;-86
2022/12/15 02:15:12;;;;;;;63.50;22.63;;;5.30;63.10;;;;;;7397495;19;20017;-86
2022/12/15 02:17:49;;;;;;;49.75;20.65;;;5.30;63.00;;;;;;7392469;19;20044;-86
2022/12/15 02:20:37;;;;;;;58.70;23.13;;;5.20;62.60;;;;;;7394783;19;20031;-86
2022/12/15 02:23:30;;;;;;;53.90;22.02;;;5.20;63.00;;;;;;7371242;19;20097;-86
2022/12/15 02:26:35;;;;;;;53.28;21.20;;;5.10;63.60;;;;;;7374014;19;20014;-86
2022/12/15 02:29:16;;;;;;;55.80;22.95;;;5.10;64.20;;;;;;7373347;19;20559;-85
2022/12/15 02:31:53;;;;;;;47.37;21.60;;;5.10;63.60;;;;;;7373691;19;20090;-86
2022/12/15 02:34:32;;;;;;;54.60;22.73;;;5.10;63.20;;;;;;7381605;19;20260;-85
2022/12/15 02:37:03;;;;;;;52.88;22.60;;;5.00;63.10;;;;;;7376479;19;20403;-85
2022/12/15 02:39:32;;;;;;;52.55;21.75;;;5.10;63.30;;;;;;7371839;19;20014;-86
2022/12/15 02:42:01;;;;;;;62.75;23.23;;;5.10;63.40;;;;;;7373944;19;20028;-85
2022/12/15 02:44:35;;;;;;;61.50;23.38;;;5.10;63.10;;;;;;7397131;19;20031;-85
2022/12/15 02:47:29;;;;;;;61.95;22.83;;;5.10;63.40;;;;;;7373860;19;20018;-85
2022/12/15 02:50:23;;;;;;;54.00;21.92;;;5.00;62.80;;;;;;7373801;19;20110;-86
2022/12/15 02:53:04;;;;;;;57.55;23.30;;;5.00;63.00;;;;;;7371088;19;20093;-85
2022/12/15 02:55:42;;;;;;;61.85;22.30;;;5.00;63.10;;;;;;7372751;19;21471;-85
2022/12/15 02:58:16;;;;;;;51.22;22.13;;;5.00;63.10;;;;;;7373170;19;20011;-84
2022/12/15 03:00:52;;;;;;;57.13;22.95;;;5.00;63.70;;;;;;7374950;19;20094;-85
2022/12/15 03:03:24;;;;;;;54.95;21.70;;;5.00;64.10;;;;;;7375207;19;20064;-86
2022/12/15 03:05:56;;;;;;;51.72;23.38;;;5.00;63.70;;;;;;7373243;19;20090;-85
2022/12/15 03:08:25;;;;;;;53.25;22.05;;;5.00;63.80;;;;;;7395998;19;20014;-85
2022/12/15 03:10:56;;;;;;;57.75;23.35;;;5.00;63.60;;;;;;7374420;19;20377;-86
2022/12/15 03:13:25;;;;;;;50.03;21.73;;;5.00;63.10;;;;;;7371950;19;20090;-86
2022/12/15 03:15:54;;;;;;;56.60;21.65;;;5.00;63.30;;;;;;7371837;19;20450;-86
2022/12/15 03:18:26;;;;;;;59.97;22.88;;;5.00;63.30;;;;;;7372140;19;20019;-86
2022/12/15 03:20:54;;;;;;;62.72;23.42;;;4.90;63.00;;;;;;7371351;19;20014;-87
2022/12/15 03:23:23;;;;;;;52.70;22.85;;;4.90;63.10;;;;;;7393886;19;20018;-86
2022/12/15 03:25:52;;;;;;;56.83;22.65;;;4.90;62.80;;;;;;7372968;19;20078;-87
2022/12/15 03:28:20;;;;;;;59.97;22.63;;;4.90;63.00;;;;;;7372071;19;20114;-85
2022/12/15 03:30:51;;;;;;;56.17;23.45;;;4.90;62.90;;;;;;7374449;19;20039;-85
2022/12/15 03:33:20;;;;;;;56.08;22.63;;;4.90;63.00;;;;;;7373235;19;20429;-85
2022/12/15 03:35:52;;;;;;;58.78;23.73;;;4.80;62.90;;;;;;7378417;19;20022;-85
2022/12/15 03:38:20;;;;;;;;;;;4.80;63.10;;;;;;7423597;19;20055;-85
2022/12/15 03:40:49;;;;;;;55.67;20.98;;;4.90;63.90;;;;;;7399256;19;19923;-84
2022/12/15 03:43:18;;;;;;;59.22;23.23;;;4.90;62.90;;;;;;7394559;19;20026;-85
2022/12/15 03:45:46;;;;;;;58.08;23.60;;;4.90;63.00;;;;;;7383700;19;20010;-85
2022/12/15 03:48:15;;;;;;;55.42;23.55;;;4.90;62.90;;;;;;7376492;19;20023;-84
2022/12/15 03:50:44;;;;;;;57.15;24.15;;;5.00;63.40;;;;;;7381234;19;20010;-84
2022/12/15 03:53:15;;;;;;;57.70;23.27;;;5.00;63.10;;;;;;7403668;19;20191;-84
2022/12/15 03:55:44;;;;;;;;;;;5.00;62.90;;;;;;7382347;19;20604;-87
2022/12/15 03:58:12;;;;;;;54.40;21.95;;;5.00;62.80;;;;;;7381475;19;19994;-85
2022/12/15 04:00:41;;;;;;;53.90;23.10;;;5.00;62.70;;;;;;7377428;19;20022;-85
2022/12/15 04:03:12;;;;;;;58.85;23.30;;;5.00;63.00;;;;;;7379275;19;20018;-85
2022/12/15 04:05:41;;;;;;;62.45;24.70;;;5.00;63.50;;;;;;7379665;19;20018;-86
2022/12/15 04:08:10;;;;;;;62.58;24.92;;;5.00;63.80;;;;;;7404390;19;20026;-85
2022/12/15 04:10:42;;;;;;;54.75;24.52;;;5.10;63.60;;;;;;7392733;19;20109;-85
2022/12/15 04:13:12;;;;;;;72.57;24.98;;;5.10;63.80;;;;;;7393132;19;20026;-84
2022/12/15 04:15:42;;;;;;;62.17;24.17;;;5.20;64.30;;;;;;7391134;19;20601;-85
2022/12/15 04:18:12;;;;;;;54.83;23.70;;;5.20;63.70;;;;;;7385169;19;20026;-84
2022/12/15 04:20:42;;;;;;;70.43;24.25;;;5.20;63.20;;;;;;7376740;19;20093;-84
2022/12/15 04:23:10;;;;;;;59.10;24.70;;;5.20;62.80;;;;;;7400066;19;20018;-85
2022/12/15 05:33:14;;;;;;;62.75;23.33;;;5.10;62.40;;;;;;7379937;19;20027;-85
2022/12/15 05:35:43;;;;;;;63.25;25.35;;;5.10;62.30;;;;;;7375852;19;20109;-86
2022/12/15 05:38:12;;;;;;;64.60;24.63;;;5.00;62.10;;;;;;7395386;19;20440;-85
2022/12/15 05:40:40;;;;;;;62.65;25.15;;;5.00;62.40;;;;;;7377075;19;20059;-88
2022/12/15 05:43:09;;;;;;;60.53;25.25;;;5.00;62.70;;;;;;7384784;19;20033;-89
2022/12/15 05:45:40;;;;;;;65.43;24.92;;;5.00;63.60;;;;;;7384843;19;20018;-87
2022/12/15 05:48:09;;;;;;;;;;;5.00;62.70;;;;;;7385562;19;20014;-85
2022/12/15 05:50:38;;;;;;;55.28;23.65;;;5.10;62.80;;;;;;7381159;19;19927;-84
2022/12/15 05:53:07;;;;;;;64.72;24.65;;;5.00;64.00;;;;;;7403151;19;20022;-85
2022/12/15 05:55:35;;;;;;;58.35;24.50;;;4.90;63.10;;;;;;7383778;19;20014;-86
2022/12/15 05:58:04;;;;;;;60.15;22.83;;;4.90;63.00;;;;;;7383743;19;20018;-85
2022/12/15 06:00:33;;;;;;;61.75;25.20;;;4.90;62.80;;;;;;7373696;19;20024;-86
2022/12/15 06:03:05;;;;;;;67.75;25.10;;;4.80;62.70;;;;;;7374540;19;20081;-84
2022/12/15 06:05:33;;;;;;;64.55;23.90;;;4.80;63.00;;;;;;7372835;19;20467;-83
2022/12/15 06:08:02;;;;;;;58.80;24.05;;;4.80;63.50;;;;;;7393806;19;20026;-85
2022/12/15 06:10:31;;;;;;;67.30;23.88;;;4.70;63.20;;;;;;7375233;19;20019;-85
2022/12/15 06:13:00;;;;;;;59.53;25.30;;;4.70;63.00;;;;;;7372436;19;20027;-85
2022/12/15 06:15:30;;;;;;;64.25;25.20;;;4.70;63.30;;;;;;7375543;19;20022;-86
2022/12/15 06:17:59;;;;;;;62.05;23.63;;;4.60;63.60;;;;;;7372811;19;20014;-87
2022/12/15 06:20:30;;;;;;;57.47;24.02;;;4.60;63.90;;;;;;7399225;19;20171;-88
2022/12/15 06:22:59;;;;;;;56.20;24.02;;;4.60;63.80;;;;;;7395037;19;20047;-87
2022/12/15 06:25:28;;;;;;;65.05;24.10;;;4.50;63.90;;;;;;7401704;19;20019;-86
2022/12/15 06:27:56;;;;;;;59.55;24.58;;;4.50;63.90;;;;;;7388327;19;20535;-86
2022/12/15 06:30:25;;;;;;;55.80;23.63;;;4.50;64.20;;;;;;7376295;19;20018;-85
2022/12/15 06:32:54;;;;;;;56.70;22.70;;;4.50;64.40;;;;;;7398902;19;20398;-85
2022/12/15 06:35:22;;;;;;;60.28;24.23;;;4.50;64.70;;;;;;7396034;19;20510;-86
2022/12/15 06:37:54;;;;;;;61.15;25.67;;;4.50;64.70;;;;;;7363087;19;20014;-86
2022/12/15 06:40:22;;;;;;;66.95;24.63;;;4.50;64.80;;;;;;7371995;19;20200;-86
2022/12/15 06:42:51;;;;;;;69.32;25.33;;;4.50;64.40;;;;;;7374888;19;20058;-86
2022/12/15 06:45:20;;;;;;;67.20;24.80;;;4.50;63.90;;;;;;7371283;19;20023;-86
2022/12/15 06:48:13;;;;;;;69.28;24.88;;;4.40;63.80;;;;;;7363863;19;20094;-86
2022/12/15 06:50:42;;;;;;;62.05;25.33;;;4.40;63.90;;;;;;7374880;19;20030;-86
2022/12/15 06:53:13;;;;;;;61.28;25.40;;;4.30;64.40;;;;;;7371326;19;20029;-86
2022/12/15 06:55:43;;;;;;;64.15;25.52;;;4.30;64.70;;;;;;7368842;19;20035;-86
2022/12/15 06:58:12;;;;;;;61.40;25.45;;;4.30;64.50;;;;;;7391349;19;20397;-85
2022/12/15 07:00:43;;;;;;;66.05;25.30;;;4.30;64.50;;;;;;7370964;19;20039;-85
2022/12/15 07:03:15;;;;;;;46.65;18.92;;;4.30;64.40;;;;;;7373066;19;20597;-86
2022/12/15 07:05:44;;;;;;;64.25;24.20;;;4.40;64.50;;;;;;7371353;19;20086;-86
2022/12/15 07:08:17;;;;;;;57.50;23.63;;;4.40;64.40;;;;;;7368530;19;20018;-85
2022/12/15 07:10:46;;;;;;;67.97;24.35;;;4.40;64.70;;;;;;7369838;19;20916;-86
2022/12/15 07:13:15;;;;;;;55.25;24.02;;;4.40;65.30;;;;;;7391855;19;20106;-85
2022/12/15 07:15:44;;;;;;;63.88;23.98;;;4.40;64.80;;;;;;7370453;19;20529;-86
2022/12/15 07:18:13;;;;;;;56.67;24.25;;;4.40;65.30;;;;;;7371534;19;20636;-86
2022/12/15 07:20:42;;;;;;;65.35;24.20;;;4.50;64.50;;;;;;7370972;19;20040;-87
2022/12/15 07:23:10;;;;;;;54.92;23.33;;;4.50;64.30;;;;;;7372171;19;20438;-87
2022/12/15 07:25:42;;;;;;;67.07;24.05;;;4.50;63.90;;;;;;7369661;19;20098;-87
2022/12/15 07:28:11;;;;;;;59.92;24.58;;;4.50;63.60;;;;;;7393134;19;20028;-86
2022/12/15 07:30:40;;;;;;;66.57;24.85;;;4.50;64.20;;;;;;7369816;19;20468;-86
2022/12/15 07:33:08;;;;;;;66.45;25.92;;;4.50;64.70;;;;;;7371426;19;20096;-87
2022/12/15 07:35:37;;;;;;;69.78;25.70;;;4.60;64.80;;;;;;7371121;19;20085;-86
2022/12/15 07:38:08;;;;;;;65.68;24.80;;;4.60;64.20;;;;;;7371575;19;20014;-85
2022/12/15 07:40:38;;;;;;;56.70;24.52;;;4.70;63.90;;;;;;7372022;19;20089;-85
2022/12/15 07:43:10;;;;;;;53.38;21.75;;;4.60;63.50;;;;;;7395964;19;20022;-86
2022/12/15 07:45:38;;;;;;;;;;;4.60;63.30;;;;;;7375265;19;20014;-85
2022/12/15 07:48:08;;;;;;;60.97;23.92;;;4.50;65.10;;;;;;7384115;19;20163;-85
2022/12/15 07:50:38;;;;;;;64.65;24.33;;;4.60;64.50;;;;;;7389954;19;20018;-81
2022/12/15 07:53:07;;;;;;;65.88;23.80;;;4.60;65.50;;;;;;7378847;19;20043;-81
2022/12/15 07:55:36;;;;;;;66.65;26.05;;;4.70;64.50;;;;;;7377167;19;20032;-80
2022/12/15 07:58:05;;;;;;;61.22;25.52;;;4.70;63.80;;;;;;7398619;19;20178;-81
2022/12/15 08:00:36;;;;;;;64.38;24.60;;;4.70;63.50;;;;;;7369182;19;20035;-81
2022/12/15 08:03:05;;;;;;;;;;;4.80;63.20;;;;;;7375787;19;20018;-80
2022/12/15 08:05:33;;;;;;;66.82;24.25;;;4.80;63.10;;;;;;7371798;19;20002;-81
2022/12/15 08:08:02;;;;;;;76.60;26.70;;;4.70;63.20;;;;;;7372107;19;20011;-80
2022/12/15 08:10:31;;;;;;;68.57;25.08;;;4.70;63.80;;;;;;7389905;19;20015;-81
2022/12/15 08:13:00;;;;;;;73.72;25.25;;;4.70;63.90;;;;;;7365782;19;20022;-81
2022/12/15 08:15:31;;;;;;;72.47;26.73;;;4.70;63.40;;;;;;7367525;19;20098;-80
2022/12/15 08:18:02;;;;;;;;;;;4.60;63.10;;;;;;7368754;19;20018;-81
2022/12/15 08:20:32;;;;;;;65.20;24.38;;;4.70;63.40;;;;;;7367798;19;19935;-79
2022/12/15 08:23:01;;;;;;;67.63;25.98;;;4.70;63.30;;;;;;7364216;19;20438;-79
2022/12/15 08:25:30;;;;;;;65.32;25.38;;;4.60;63.30;;;;;;7387768;19;20022;-80
2022/12/15 08:27:59;;;;;;;68.47;24.58;;;4.60;63.60;;;;;;7367059;19;20070;-80
2022/12/15 08:30:28;;;;;;;57.58;24.52;;;4.60;63.30;;;;;;7366557;19;20061;-80
2022/12/15 08:32:57;;;;;;;61.83;24.63;;;4.80;63.80;;;;;;7368165;19;20015;-80
2022/12/15 08:35:28;;;;;;;60.42;23.80;;;4.80;63.60;;;;;;7367269;19;20010;-81
2022/12/15 08:37:57;;;;;;;65.18;25.48;;;4.90;63.60;;;;;;7374942;19;20677;-78
2022/12/15 08:40:26;;;;;;;65.82;24.70;;;5.00;63.40;;;;;;7395036;19;20036;-81
2022/12/15 08:42:55;;;;;;;61.55;26.95;;;5.10;63.00;;;;;;7374026;19;20105;-81
2022/12/15 08:45:24;;;;;;;71.65;25.38;;;5.20;63.00;;;;;;7372024;19;20102;-80
2022/12/15 08:47:53;;;;;;;62.63;23.88;;;5.30;62.80;;;;;;7374852;19;20029;-79
2022/12/15 08:50:22;;;;;;;57.75;23.88;;;5.30;62.40;;;;;;7372333;19;20458;-78
2022/12/15 08:52:53;;;;;;;59.13;23.83;;;5.40;61.80;;;;;;7371789;19;20123;-79
2022/12/15 08:55:22;;;;;;;;;;;5.40;61.80;;;;;;7396955;19;20026;-79
2022/12/15 08:57:51;;;;;;;55.45;22.83;;;5.50;61.30;;;;;;7373602;19;19930;-79
2022/12/15 09:00:20;;;;;;;52.63;23.25;;;5.40;61.50;;;;;;7371217;19;20047;-80
2022/12/15 09:02:49;;;;;;;64.47;24.00;;;5.50;62.10;;;;;;7369646;19;20026;-80
2022/12/15 09:05:18;;;;;;;61.65;23.15;;;5.60;61.30;;;;;;7373127;19;20032;-78
2022/12/15 09:07:48;;;;;;;63.90;25.30;;;5.70;60.40;;;;;;7373736;19;20014;-79
2022/12/15 09:10:19;;;;;;;60.13;24.45;;;5.70;60.00;;;;;;7396790;19;20081;-79
2022/12/15 09:12:48;;;;;;;59.70;23.98;;;5.70;60.10;;;;;;7375159;19;20018;-79
2022/12/15 09:15:17;;;;;;;58.28;23.33;;;5.70;60.40;;;;;;7379086;19;22276;-80
2022/12/15 09:17:46;;;;;;;59.17;24.02;;;5.80;60.50;;;;;;7378621;19;20031;-80
2022/12/15 09:20:16;;;;;;;64.97;23.60;;;5.80;60.30;;;;;;7373334;19;20025;-81
2022/12/15 09:22:44;;;;;;;58.13;24.40;;;5.80;59.60;;;;;;7372547;19;20018;-80
2022/12/15 09:25:13;;;;;;;56.83;24.10;;;5.90;59.70;;;;;;7397517;19;20086;-80
2022/12/15 09:27:45;;;;;;;65.82;25.33;;;5.80;59.70;;;;;;7372711;19;20015;-79
2022/12/15 09:30:14;;;;;;;68.10;24.27;;;5.90;59.90;;;;;;7373286;19;20500;-80
2022/12/15 09:32:43;;;;;;;63.88;24.52;;;6.00;59.80;;;;;;7372241;19;20630;-81
2022/12/15 09:35:12;;;;;;;63.03;24.27;;;6.00;59.50;;;;;;7371419;19;20064;-80
2022/12/15 09:37:41;;;;;;;62.63;24.00;;;6.00;59.40;;;;;;7372469;19;20031;-80
2022/12/15 09:40:14;;;;;;;74.60;25.13;;;6.00;59.50;;;;;;7396162;19;20018;-81
2022/12/15 09:42:53;;;;;;;55.00;22.95;;;6.00;58.90;;;;;;7373010;19;20134;-80
2022/12/15 09:45:24;;;;;;;61.00;23.42;;;6.00;59.00;;;;;;7371202;19;20094;-81
2022/12/15 09:47:59;;;;;;;60.33;22.52;;;6.00;58.40;;;;;;7372461;19;20430;-81
2022/12/15 09:50:34;;;;;;;60.97;24.38;;;6.00;58.90;;;;;;7371025;19;20035;-81
2022/12/15 09:53:05;;;;;;;61.65;24.65;;;6.00;58.60;;;;;;7371497;19;20093;-80
2022/12/15 09:55:34;;;;;;;53.58;23.38;;;6.00;58.50;;;;;;7379881;19;20022;-80
2022/12/15 09:58:14;;;;;;;60.05;23.92;;;6.00;58.60;;;;;;7392072;19;20085;-80
2022/12/15 10:00:50;;;;;;;69.32;24.55;;;6.10;58.70;;;;;;7372316;19;20477;-80
2022/12/15 10:03:49;;;;;;;59.33;23.27;;;6.10;59.40;;;;;;7373539;19;20121;-79
2022/12/15 10:06:21;;;;;;;67.53;26.15;;;6.20;58.60;;;;;;7372625;19;20446;-79
2022/12/15 10:08:55;;;;;;;60.78;24.02;;;6.30;58.90;;;;;;7378884;19;20006;-80
2022/12/15 10:11:38;;;;;;;54.28;24.10;;;6.30;59.80;;;;;;7378825;19;20051;-80
2022/12/15 10:14:18;;;;;;;54.80;21.33;;;6.20;59.10;;;;;;7378518;19;20023;-81
2022/12/15 10:16:57;;;;;;;61.05;24.88;;;6.30;57.90;;;;;;7384574;19;20011;-80
2022/12/15 10:19:35;;;;;;;50.80;21.45;;;6.30;57.80;;;;;;7402512;19;20041;-78
2022/12/15 10:22:04;;;;;;;55.72;23.48;;;6.30;57.50;;;;;;7378179;19;20018;-79
2022/12/15 10:24:34;;;;;;;54.55;23.40;;;6.30;57.50;;;;;;7376382;19;20023;-79
2022/12/15 10:27:16;;;;;;;56.70;23.63;;;6.20;59.00;;;;;;7375382;19;20041;-81
2022/12/15 10:29:49;;;;;;;54.63;22.70;;;6.20;59.10;;;;;;7373448;19;20017;-79
2022/12/15 10:32:21;;;;;;;59.10;23.63;;;6.30;58.60;;;;;;7373040;19;20331;-80
2022/12/15 10:34:49;;;;;;;66.13;23.77;;;6.40;58.00;;;;;;7372159;19;20058;-79
2022/12/15 10:37:21;;;;;;;54.85;22.85;;;6.50;57.80;;;;;;7400313;19;20010;-84
2022/12/15 10:39:51;;;;;;;60.40;22.27;;;6.60;57.30;;;;;;7382983;19;20072;-84
2022/12/15 10:42:23;;;;;;;58.13;21.60;;;6.70;56.70;;;;;;7375988;19;20027;-82
2022/12/15 10:44:57;;;;;;;50.72;22.05;;;6.70;56.60;;;;;;7375143;19;20006;-79
2022/12/15 10:47:28;;;;;;;60.75;21.90;;;6.70;56.90;;;;;;7373848;19;20014;-80
2022/12/15 10:50:17;;;;;;;67.18;23.13;;;6.70;57.00;;;;;;7373282;19;20324;-81
2022/12/15 10:52:46;;;;;;;52.25;21.75;;;6.70;57.50;;;;;;7374905;19;20018;-79
2022/12/15 10:55:37;;;;;;;54.92;22.30;;;6.70;57.10;;;;;;7396892;19;20018;-80
2022/12/15 10:58:17;;;;;;;56.80;21.02;;;6.60;56.90;;;;;;7374011;19;20031;-80
2022/12/15 11:00:48;;;;;;;55.28;23.40;;;6.40;56.50;;;;;;7372380;19;20040;-79
2022/12/15 11:03:28;;;;;;;54.40;22.92;;;6.50;57.20;;;;;;7372453;19;20492;-78
2022/12/15 11:05:58;;;;;;;53.30;23.30;;;6.50;57.50;;;;;;7371323;19;20082;-79
2022/12/15 11:08:28;;;;;;;56.83;24.27;;;6.60;57.40;;;;;;7372090;19;20015;-79
2022/12/15 11:14:07;;;;;;;66.63;23.85;;;6.60;57.00;;;;;;7372723;19;20010;-86
2022/12/15 11:16:47;;;;;;;64.47;24.15;;;6.50;59.00;;;;;;7372684;19;20030;-84
2022/12/15 11:19:22;;;;;;;68.93;23.77;;;6.30;59.20;;;;;;7398323;19;20667;-84
2022/12/15 11:21:58;;;;;;;53.83;24.33;;;6.40;58.80;;;;;;7378188;19;20027;-87
2022/12/15 11:24:34;;;;;;;67.22;25.05;;;6.00;58.70;;;;;;7383253;19;20806;-85
2022/12/15 11:27:17;;;;;;;58.80;24.58;;;6.20;58.20;;;;;;7390761;19;20033;-91
2022/12/15 11:30:05;;;;;;;59.38;23.17;;;6.20;57.70;;;;;;7385095;19;20014;-91
2022/12/15 11:32:40;;;;;;;62.25;25.65;;;6.00;57.50;;;;;;7379681;19;20128;-84
2022/12/15 11:35:15;;;;;;;50.28;23.42;;;5.90;58.30;;;;;;7383318;19;20018;-87
2022/12/15 11:40:39;;;;;;;61.13;24.77;;;6.10;58.10;;;;;;7412385;19;20022;-86
2022/12/15 11:43:28;;;;;;;54.40;23.52;;;6.20;57.80;;;;;;7402932;19;20007;-91
2022/12/15 11:48:47;;;;;;;68.13;25.60;;;5.90;58.00;;;;;;7375056;19;20037;-90
2022/12/15 11:54:03;;;;;;;65.82;25.15;;;6.10;58.30;;;;;;7418860;19;20018;-89
2022/12/15 11:56:40;;;;;;;55.17;24.40;;;6.10;57.90;;;;;;7402899;19;20010;-89
2022/12/15 11:59:29;;;;;;;65.32;24.23;;;5.90;57.80;;;;;;7401926;19;20071;-86
2022/12/15 12:02:15;;;;;;;59.55;22.65;;;6.00;58.20;;;;;;7386762;19;20058;-84
2022/12/15 12:05:02;;;;;;;66.30;24.73;;;5.90;58.00;;;;;;7393398;19;20312;-88
2022/12/15 12:07:40;;;;;;;65.68;25.33;;;6.10;58.70;;;;;;7418562;19;20014;-85
2022/12/15 12:10:26;;;;;;;56.17;24.27;;;6.10;58.00;;;;;;7388508;19;20015;-88
2022/12/15 12:13:05;;;;;;;62.30;23.70;;;6.00;57.80;;;;;;7384749;19;20050;-90
2022/12/15 12:15:41;;;;;;;58.45;25.67;;;6.00;57.90;;;;;;7393953;19;20022;-89
2022/12/15 12:18:19;;;;;;;63.10;23.23;;;6.20;58.10;;;;;;7385265;19;20019;-86
2022/12/15 12:20:54;;;;;;;51.13;22.17;;;6.10;58.00;;;;;;7388688;19;20018;-89
2022/12/15 12:23:29;;;;;;;65.90;24.83;;;6.10;57.70;;;;;;7398485;19;20014;-87
2022/12/15 12:26:07;;;;;;;64.90;21.85;;;5.70;58.30;;;;;;7382740;19;20043;-85
2022/12/15 12:28:49;;;;;;;60.70;22.60;;;5.60;58.30;;;;;;7403325;19;20029;-89
2022/12/15 12:31:28;;;;;;;66.65;24.45;;;5.70;58.60;;;;;;7426063;19;20032;-90
2022/12/15 12:34:05;;;;;;;58.25;23.38;;;5.60;58.70;;;;;;7395731;19;20010;-88
2022/12/15 12:36:37;;;;;;;64.70;24.27;;;5.70;58.60;;;;;;7395150;19;20010;-89
2022/12/15 12:41:48;;;;;;;60.30;23.05;;;6.00;58.30;;;;;;7347215;19;20387;-85
2022/12/15 12:44:27;;;;;;;45.53;20.77;;;6.00;57.80;;;;;;7387762;19;20014;-88
2022/12/15 12:47:01;;;;;;;54.65;21.42;;;5.90;57.00;;;;;;7391641;19;20023;-90
2022/12/15 12:55:06;;;;;;;45.45;20.70;;;6.30;56.40;;;;;;7392442;19;20037;-88
2022/12/15 12:57:42;;;;;;;49.88;22.15;;;6.50;56.20;;;;;;7421438;19;20074;-87
2022/12/15 13:00:28;;;;;;;52.65;21.67;;;6.60;56.40;;;;;;7394475;19;20018;-91
2022/12/15 13:03:23;;;;;;;65.88;21.25;;;6.70;56.00;;;;;;7390076;19;20027;-88
2022/12/15 13:08:40;;;;;;;;;;;6.50;55.60;;;;;;7421355;19;20011;-91
2022/12/15 13:11:54;;;;;;;54.22;18.42;;;6.60;56.30;;;;;;7389583;19;20664;-86
2022/12/15 13:14:49;;;;;;;47.50;19.30;;;6.40;56.50;;;;;;7381012;19;20017;-88
2022/12/15 13:17:30;;;;;;;48.80;19.25;;;6.50;55.60;;;;;;7385120;19;20027;-85
2022/12/15 13:20:24;;;;;;;43.72;19.55;;;6.60;54.50;;;;;;7376485;19;20018;-83
2022/12/15 13:23:01;;;;;;;50.95;20.33;;;6.60;54.70;;;;;;7379207;19;20004;-86
2022/12/15 13:25:46;;;;;;;44.58;19.15;;;6.80;54.70;;;;;;7407376;19;20011;-88
2022/12/15 13:28:41;;;;;;;38.33;17.65;;;6.80;53.30;;;;;;7384203;19;20082;-85
2022/12/15 13:31:40;;;;;;;;;;;;;;;;;;;;;
2022/12/15 13:34:30;;;;;;;49.53;19.95;;;6.80;55.10;;;;;;7392862;19;20985;-86
2022/12/15 13:37:04;;;;;;;50.25;17.92;;;6.80;54.70;;;;;;7389407;19;20039;-85
2022/12/15 13:39:58;;;;;;;41.63;17.40;;;6.80;53.40;;;;;;7375830;19;20014;-87
2022/12/15 13:42:45;;;;;;;46.13;18.10;;;6.60;52.80;;;;;;7375957;19;20022;-86
2022/12/15 13:45:57;;;;;;;48.00;18.75;;;6.60;53.60;;;;;;7377950;19;20019;-85
2022/12/15 13:48:41;;;;;;;52.22;20.23;;;6.70;53.70;;;;;;7376147;19;20015;-85
2022/12/15 13:51:31;;;;;;;50.60;19.40;;;6.50;54.10;;;;;;7378410;19;20038;-86
2022/12/15 13:54:14;;;;;;;54.17;18.45;;;6.50;53.90;;;;;;7388824;19;20022;-89
2022/12/15 13:56:56;;;;;;;47.17;18.98;;;6.70;54.50;;;;;;7380656;19;20018;-89
2022/12/15 13:59:43;;;;;;;45.42;18.77;;;6.50;53.80;;;;;;7348369;19;20039;-86
2022/12/15 14:02:33;;;;;;;43.70;18.08;;;6.50;54.00;;;;;;7382497;19;20014;-86
2022/12/15 14:05:16;;;;;;;44.72;18.10;;;6.50;54.00;;;;;;7383676;19;20470;-84
2022/12/15 14:07:48;;;;;;;43.72;17.75;;;6.50;54.20;;;;;;7381495;19;20010;-87
2022/12/15 14:10:24;;;;;;;49.08;17.17;;;6.50;54.00;;;;;;7402034;19;20015;-86
2022/12/15 14:12:54;;;;;;;40.42;17.60;;;6.30;53.00;;;;;;7386438;19;20317;-87
2022/12/15 14:15:29;;;;;;;42.40;17.80;;;6.20;53.60;;;;;;7378921;19;20014;-85
2022/12/15 14:17:59;;;;;;;41.35;16.27;;;6.20;53.90;;;;;;7377784;19;20011;-87
2022/12/15 14:20:33;;;;;;;41.58;17.35;;;6.10;54.10;;;;;;7381138;19;20022;-86
2022/12/15 14:23:19;;;;;;;44.47;16.83;;;6.20;54.00;;;;;;7386547;19;20020;-85
2022/12/15 14:25:56;;;;;;;41.55;16.60;;;6.10;53.50;;;;;;7401895;19;20014;-86
2022/12/15 14:28:32;;;;;;;39.03;17.00;;;6.20;54.10;;;;;;7404271;19;20017;-86
2022/12/15 14:31:04;;;;;;;38.40;16.52;;;6.00;53.60;;;;;;7379677;19;20035;-86
2022/12/15 14:33:37;;;;;;;60.35;17.35;;;5.70;53.70;;;;;;7390080;19;20007;-88
2022/12/15 14:36:13;;;;;;;32.15;15.20;;;5.80;54.40;;;;;;7388076;19;20023;-85
2022/12/15 14:39:24;;;;;;;35.15;15.07;;;5.90;53.60;;;;;;7381412;19;20011;-85
2022/12/15 14:41:54;;;;;;;37.80;15.27;;;6.00;53.60;;;;;;7389310;19;20010;-88
2022/12/15 14:44:32;;;;;;;36.45;14.80;;;6.00;52.70;;;;;;7386965;19;20011;-88
2022/12/15 14:47:04;;;;;;;37.65;14.55;;;6.00;52.70;;;;;;7389702;19;20014;-84
2022/12/15 14:49:37;;;;;;;31.35;15.10;;;6.00;52.40;;;;;;7392237;19;20055;-86
2022/12/15 14:52:29;;;;;;;37.88;14.85;;;6.20;52.80;;;;;;7404254;19;20569;-89
2022/12/15 14:55:01;;;;;;;;;;;6.20;52.50;;;;;;7386916;19;20025;-88
2022/12/15 14:57:46;;;;;;;35.90;13.85;;;6.30;52.50;;;;;;7402478;19;19947;-85
2022/12/15 15:00:27;;;;;;;31.77;13.63;;;6.30;52.60;;;;;;7399894;19;20031;-85
2022/12/15 15:03:21;;;;;;;31.55;13.73;;;6.30;52.20;;;;;;7382654;19;20347;-89
2022/12/15 15:05:53;;;;;;;30.15;13.77;;;6.30;51.90;;;;;;7384629;19;20081;-86
2022/12/15 15:08:39;;;;;;;26.92;13.48;;;6.20;51.30;;;;;;7380120;19;20488;-88
2022/12/15 15:11:28;;;;;;;31.73;13.43;;;6.10;51.30;;;;;;7379428;19;20014;-87
2022/12/15 15:13:58;;;;;;;34.95;13.18;;;5.90;50.70;;;;;;7380307;19;20422;-89
2022/12/15 15:16:29;;;;;;;34.10;12.32;;;5.80;50.60;;;;;;7401647;19;20039;-85
2022/12/15 15:19:03;;;;;;;46.85;12.63;;;5.80;50.80;;;;;;7375074;19;20015;-85
2022/12/15 15:21:37;;;;;;;31.83;12.63;;;5.90;50.90;;;;;;7377907;19;20731;-88
2022/12/15 15:24:38;;;;;;;43.20;13.75;;;5.80;50.40;;;;;;7378043;19;20777;-85
2022/12/15 15:27:29;;;;;;;23.50;9.50;;;5.90;50.60;;;;;;7382754;19;20018;-84
2022/12/15 15:30:17;;;;;;;29.38;11.15;;;5.70;49.10;;;;;;7384209;19;20334;-87
2022/12/15 15:32:57;;;;;;;29.90;11.63;;;5.80;49.60;;;;;;7387264;19;20022;-87
2022/12/15 15:35:27;;;;;;;36.67;11.73;;;5.70;48.70;;;;;;7392692;19;20018;-87
2022/12/15 15:38:06;;;;;;;24.47;10.47;;;5.80;48.80;;;;;;7387946;19;20122;-87
2022/12/15 15:40:38;;;;;;;23.60;10.18;;;5.90;49.00;;;;;;7394630;19;20014;-89
2022/12/15 15:43:13;;;;;;;19.88;9.50;;;5.90;48.80;;;;;;7410170;19;20025;-85
2022/12/15 15:45:42;;;;;;;28.35;9.48;;;5.80;47.60;;;;;;7393832;19;20078;-89
2022/12/15 15:48:14;;;;;;;25.50;9.90;;;5.80;47.80;;;;;;7393480;19;20090;-91
2022/12/15 15:50:46;;;;;;;26.83;9.18;;;5.80;47.80;;;;;;7397257;19;20010;-88
2022/12/15 15:53:25;;;;;;;21.60;8.15;;;5.80;48.70;;;;;;7390543;19;20338;-87
2022/12/15 15:55:58;;;;;;;24.95;10.10;;;5.70;48.10;;;;;;7388699;19;20016;-85
2022/12/15 15:58:27;;;;;;;19.90;8.75;;;5.50;48.40;;;;;;7406852;19;20118;-86
2022/12/15 16:01:01;;;;;;;23.15;8.45;;;5.50;47.50;;;;;;7379925;19;20022;-84